Time;durP1;ratioP1;P1;durP2;ratioP2;P2;SDS_P1;SDS_P2;PMS_P1;PMS_P2;Temp;Humidity;BMP_temperature;BMP_pressure;BME280_temperature;BME280_humidity;BME280_pressure;Samples;Min_cycle;Max_cycle;Signal;HPM_P1;HPM_P2
2023/01/25 00:00:31;;;;;;;31.25;24.85;;;;;;;0.11;100.00;103660.84;1031681;28;20310;-74
2023/01/25 00:01:04;;;;;;;31.50;25.25;;;;;;;0.11;100.00;103658.22;1028143;28;20660;-74
2023/01/25 00:01:36;;;;;;;30.85;24.60;;;;;;;0.11;100.00;103655.59;1027759;28;20302;-75
2023/01/25 00:02:07;;;;;;;33.03;25.60;;;;;;;0.11;100.00;103652.97;1027213;28;20403;-74
2023/01/25 00:02:39;;;;;;;30.86;25.56;;;;;;;0.11;100.00;103655.59;1027933;28;20661;-74
2023/01/25 00:03:11;;;;;;;30.70;24.88;;;;;;;0.09;100.00;103661.84;1027773;28;20136;-75
2023/01/25 00:03:42;;;;;;;30.50;25.67;;;;;;;0.10;100.00;103651.28;1024403;28;20295;-74
2023/01/25 00:04:14;;;;;;;36.97;27.02;;;;;;;0.10;100.00;103653.91;1028169;28;20321;-74
2023/01/25 00:04:45;;;;;;;31.13;25.33;;;;;;;0.11;100.00;103650.34;1032106;28;20695;-74
2023/01/25 00:05:17;;;;;;;29.33;25.48;;;;;;;0.13;100.00;103651.13;1031658;28;20323;-74
2023/01/25 00:05:57;;;;;;;32.22;27.63;;;;;;;0.16;100.00;103647.50;1027736;28;20298;-75
2023/01/25 00:06:29;;;;;;;26.90;23.45;;;;;;;0.19;100.00;103642.94;1028051;28;20803;-75
2023/01/25 00:07:01;;;;;;;30.98;25.02;;;;;;;0.19;100.00;103645.56;1029394;28;20039;-74
2023/01/25 00:07:32;;;;;;;33.78;25.76;;;;;;;0.18;100.00;103645.63;1028153;28;20675;-74
2023/01/25 00:08:04;;;;;;;28.35;24.52;;;;;;;0.19;100.00;103648.16;1028448;28;20042;-74
2023/01/25 00:08:37;;;;;;;29.66;23.60;;;;;;;0.19;100.00;103645.56;1027345;28;20302;-74
2023/01/25 00:09:10;;;;;;;31.92;25.88;;;;;;;0.19;100.00;103648.16;1028793;28;20086;-74
2023/01/25 00:09:41;;;;;;;31.90;24.92;;;;;;;0.19;100.00;103642.94;1027618;28;20432;-74
2023/01/25 00:10:13;;;;;;;29.52;24.63;;;;;;;0.20;100.00;103643.78;1028682;28;20306;-74
2023/01/25 00:10:50;;;;;;;28.20;24.05;;;;;;;0.22;100.00;103648.00;1031912;28;20696;-74
2023/01/25 00:11:21;;;;;;;31.88;25.08;;;;;;;0.24;100.00;103640.91;1033278;28;20356;-75
2023/01/25 00:11:55;;;;;;;29.17;23.73;;;;;;;0.24;100.00;103646.16;1036486;28;20300;-75
2023/01/25 00:12:26;;;;;;;31.48;24.23;;;;;;;0.22;100.00;103640.16;1031329;28;20337;-75
2023/01/25 00:12:58;;;;;;;29.83;24.58;;;;;;;0.20;100.00;103644.63;1023879;29;20378;-75
2023/01/25 00:13:29;;;;;;;29.58;24.10;;;;;;;0.21;100.00;103640.22;1023720;29;20298;-75
2023/01/25 00:14:01;;;;;;;29.80;23.95;;;;;;;0.25;100.00;103637.38;1024040;28;20311;-75
2023/01/25 00:14:32;;;;;;;30.90;23.95;;;;;;;0.25;100.00;103637.38;1028785;28;20798;-73
2023/01/25 00:15:05;;;;;;;29.27;23.98;;;;;;;0.24;100.00;103634.81;1031640;28;20317;-75
2023/01/25 00:15:37;;;;;;;31.90;24.83;;;;;;;0.13;100.00;103643.25;1032030;28;20297;-75
2023/01/25 00:16:08;;;;;;;29.42;25.50;;;;;;;0.09;100.00;103641.72;1031681;28;20861;-75
2023/01/25 00:16:40;;;;;;;31.50;25.08;;;;;;;-0.06;100.00;103637.25;1031926;28;20297;-75
2023/01/25 00:17:12;;;;;;;29.25;24.60;;;;;;;-0.09;100.00;103637.41;1031945;28;20307;-75
2023/01/25 00:17:44;;;;;;;32.60;25.95;;;;;;;-0.13;100.00;103636.72;1027553;28;20310;-75
2023/01/25 00:18:15;;;;;;;29.00;23.90;;;;;;;-0.12;100.00;103643.66;1027979;28;20298;-75
2023/01/25 00:18:47;;;;;;;28.88;24.50;;;;;;;-0.10;100.00;103646.19;1024324;28;20314;-75
2023/01/25 00:19:19;;;;;;;30.83;26.02;;;;;;;-0.09;100.00;103640.03;1027820;28;20369;-75
2023/01/25 00:19:50;;;;;;;26.77;22.33;;;;;;;-0.04;100.00;103635.41;1031067;28;20336;-75
2023/01/25 00:20:22;;;;;;;31.75;25.17;;;;;;;-0.05;100.00;103638.94;1031497;28;20297;-75
2023/01/25 00:20:53;;;;;;;30.45;24.80;;;;;;;-0.11;100.00;103640.09;1032517;28;20302;-75
2023/01/25 00:21:25;;;;;;;28.65;22.70;;;;;;;-0.20;100.00;103640.59;1036056;28;20296;-75
2023/01/25 00:21:57;;;;;;;31.35;24.23;;;;;;;-0.17;100.00;103639.59;1031645;28;20660;-75
2023/01/25 00:22:29;;;;;;;30.55;25.52;;;;;;;-0.18;100.00;103640.50;1028028;28;20294;-75
2023/01/25 00:23:00;;;;;;;31.90;25.30;;;;;;;-0.16;100.00;103641.28;1027615;28;20727;-75
2023/01/25 00:23:33;;;;;;;30.17;24.33;;;;;;;-0.22;100.00;103641.59;1023446;29;20847;-75
2023/01/25 00:24:05;;;;;;;30.98;26.50;;;;;;;-0.23;100.00;103645.13;1026288;28;20295;-75
2023/01/25 00:24:36;;;;;;;30.45;25.10;;;;;;;-0.15;100.00;103640.34;1023634;29;20783;-75
2023/01/25 00:25:08;;;;;;;31.23;26.73;;;;;;;-0.18;100.00;103635.25;1020500;29;20307;-75
2023/01/25 00:25:40;;;;;;;28.35;23.65;;;;;;;-0.15;100.00;103635.97;1022386;29;20400;-75
2023/01/25 00:26:12;;;;;;;30.77;24.90;;;;;;;-0.11;100.00;103634.03;1016424;29;20394;-75
2023/01/25 00:26:43;;;;;;;28.90;24.33;;;;;;;-0.10;100.00;103630.47;1016296;29;20344;-75
2023/01/25 00:27:15;;;;;;;29.73;25.02;;;;;;;-0.10;100.00;103635.72;1020207;29;20394;-75
2023/01/25 00:27:47;;;;;;;29.52;25.00;;;;;;;-0.12;100.00;103634.94;1025086;28;20299;-75
2023/01/25 00:28:20;;;;;;;28.92;22.80;;;;;;;-0.04;100.00;103635.41;1028527;28;20305;-75
2023/01/25 00:28:53;;;;;;;29.60;24.92;;;;;;;-0.04;100.00;103630.16;1031721;28;20308;-75
2023/01/25 00:29:25;;;;;;;30.55;24.80;;;;;;;0.00;100.00;103636.97;1026997;28;20780;-75
2023/01/25 00:29:57;;;;;;;28.60;23.90;;;;;;;0.11;100.00;103634.63;1028598;28;20298;-75
2023/01/25 00:30:28;;;;;;;33.75;24.73;;;;;;;0.24;100.00;103632.19;1027667;28;20317;-75
2023/01/25 00:31:04;;;;;;;32.40;24.55;;;;;;;0.05;100.00;103634.09;1028056;28;20317;-75
2023/01/25 00:31:55;;;;;;;30.13;24.50;;;;;;;-0.02;100.00;103633.53;1027593;28;20527;-75
2023/01/25 00:32:33;;;;;;;27.98;21.95;;;;;;;-0.04;100.00;103630.16;1031365;28;20305;-75
2023/01/25 00:33:17;;;;;;;29.77;23.10;;;;;;;-0.05;100.00;103625.84;1023878;29;20463;-75
2023/01/25 00:33:51;;;;;;;28.45;22.65;;;;;;;-0.16;100.00;103634.25;1026162;28;20305;-75
2023/01/25 00:34:23;;;;;;;27.60;22.63;;;;;;;-0.17;100.00;103627.31;1023820;29;20310;-75
2023/01/25 00:34:57;;;;;;;30.45;24.08;;;;;;;-0.19;100.00;103623.94;1024630;28;20295;-75
2023/01/25 00:35:30;;;;;;;29.05;23.85;;;;;;;-0.11;100.00;103631.41;1025521;28;20342;-75
2023/01/25 00:36:20;;;;;;;31.65;23.95;;;;;;;-0.10;100.00;103625.25;1020742;29;20355;-75
2023/01/25 00:37:16;;;;;;;29.55;23.40;;;;;;;-0.09;100.00;103632.16;1027438;28;20481;-75
2023/01/25 00:37:51;;;;;;;25.98;20.70;;;;;;;-0.19;100.00;103625.72;1031593;28;20321;-75
2023/01/25 00:38:29;;;;;;;29.75;23.33;;;;;;;-0.14;100.00;103624.56;1032091;28;20361;-75
2023/01/25 00:39:01;;;;;;;27.92;22.73;;;;;;;-0.13;100.00;103626.25;1023482;29;20309;-74
2023/01/25 00:39:33;;;;;;;28.90;22.67;;;;;;;-0.18;100.00;103625.63;1023682;29;20379;-75
2023/01/25 00:40:05;;;;;;;28.75;23.65;;;;;;;-0.16;100.00;103625.56;1019511;29;20307;-75
2023/01/25 00:40:37;;;;;;;27.38;23.27;;;;;;;-0.14;100.00;103623.69;1019665;29;20311;-75
2023/01/25 00:41:09;;;;;;;29.63;23.23;;;;;;;-0.18;100.00;103623.00;1020537;29;20374;-75
2023/01/25 00:41:42;;;;;;;28.38;22.23;;;;;;;-0.15;100.00;103627.25;1024495;28;20805;-74
2023/01/25 00:42:15;;;;;;;29.95;23.63;;;;;;;-0.04;100.00;103630.16;1023578;29;20302;-74
2023/01/25 00:42:48;;;;;;;29.83;23.88;;;;;;;-0.25;100.00;103623.41;1019535;29;20377;-75
2023/01/25 00:43:20;;;;;;;27.70;23.05;;;;;;;-0.12;100.00;103621.84;1019804;29;20390;-75
2023/01/25 00:43:51;;;;;;;31.92;24.40;;;;;;;-0.06;100.00;103622.38;1020600;29;20314;-75
2023/01/25 00:44:23;;;;;;;28.10;22.98;;;;;;;-0.10;100.00;103622.63;1020290;28;20315;-75
2023/01/25 00:44:54;;;;;;;27.58;22.50;;;;;;;-0.21;100.00;103620.56;1024267;28;20722;-75
2023/01/25 00:45:26;;;;;;;26.45;22.98;;;;;;;-0.21;100.00;103630.19;1025660;28;20397;-75
2023/01/25 00:46:01;;;;;;;28.40;23.75;;;;;;;-0.26;100.00;103624.34;1027882;28;20302;-75
2023/01/25 00:46:33;;;;;;;28.83;23.85;;;;;;;-0.18;100.00;103627.41;1028904;28;20362;-75
2023/01/25 00:47:05;;;;;;;30.88;25.13;;;;;;;-0.18;100.00;103627.41;1031668;28;20289;-75
2023/01/25 00:47:38;;;;;;;28.33;22.42;;;;;;;-0.23;100.00;103629.41;1027998;28;20306;-75
2023/01/25 00:48:13;;;;;;;28.65;24.52;;;;;;;-0.28;100.00;103627.00;1019815;29;20304;-74
2023/01/25 00:48:45;;;;;;;31.00;25.08;;;;;;;-0.26;100.00;103624.34;1022073;29;20355;-75
2023/01/25 00:49:22;;;;;;;27.80;24.02;;;;;;;-0.23;100.00;103626.81;1014243;29;20641;-75
2023/01/25 00:49:53;;;;;;;30.50;24.83;;;;;;;-0.21;100.00;103627.56;1016763;29;20327;-75
2023/01/25 00:50:25;;;;;;;27.88;23.58;;;;;;;-0.27;100.00;103628.72;1015430;29;20780;-75
2023/01/25 00:51:01;;;;;;;27.90;23.35;;;;;;;-0.28;100.00;103620.91;1017965;29;20319;-75
2023/01/25 00:51:32;;;;;;;30.80;24.23;;;;;;;-0.34;100.00;103622.09;1020020;29;20299;-75
2023/01/25 00:52:04;;;;;;;28.23;23.30;;;;;;;-0.32;100.00;103625.47;1024579;28;20314;-75
2023/01/25 00:52:36;;;;;;;30.58;23.88;;;;;;;-0.28;100.00;103620.91;1019469;29;20295;-75
2023/01/25 00:53:07;;;;;;;29.88;24.77;;;;;;;-0.35;100.00;103623.84;1016592;29;20308;-75
2023/01/25 00:53:39;;;;;;;28.38;23.50;;;;;;;-0.25;100.00;103626.03;1023423;29;20291;-75
2023/01/25 00:54:11;;;;;;;31.83;25.15;;;;;;;-0.29;100.00;103627.94;1024664;28;20735;-75
2023/01/25 00:54:42;;;;;;;31.02;24.65;;;;;;;-0.35;100.00;103616.00;1028088;28;20392;-75
2023/01/25 00:55:14;;;;;;;31.05;23.38;;;;;;;-0.35;100.00;103621.22;1027130;28;20301;-75
2023/01/25 00:55:52;;;;;;;32.88;25.30;;;;;;;-0.37;100.00;103620.47;1023783;29;20313;-75
2023/01/25 00:56:23;;;;;;;29.38;24.58;;;;;;;-0.45;100.00;103627.00;1020873;29;20673;-75
2023/01/25 00:56:55;;;;;;;29.83;23.63;;;;;;;-0.44;100.00;103632.19;1020793;29;20307;-75
2023/01/25 00:57:27;;;;;;;33.72;25.33;;;;;;;-0.40;100.00;103618.00;1017117;29;20374;-75
2023/01/25 00:57:58;;;;;;;28.92;24.58;;;;;;;-0.32;100.00;103630.69;1015494;29;20319;-75
2023/01/25 00:58:30;;;;;;;32.60;24.25;;;;;;;-0.34;100.00;103619.47;1016327;29;20304;-75
2023/01/25 00:59:02;;;;;;;29.02;25.15;;;;;;;-0.41;100.00;103621.53;1016037;29;20325;-75
2023/01/25 00:59:33;;;;;;;31.83;26.35;;;;;;;-0.41;100.00;103621.53;1015875;29;20304;-75
2023/01/25 01:00:06;;;;;;;30.70;26.02;;;;;;;-0.54;100.00;103619.63;1020257;29;20295;-75
2023/01/25 01:00:38;;;;;;;28.60;23.80;;;;;;;-0.59;100.00;103619.81;1018112;28;20312;-74
2023/01/25 01:01:10;;;;;;;31.25;24.92;;;;;;;-0.58;100.00;103618.06;1024173;28;20313;-74
2023/01/25 01:01:41;;;;;;;31.02;25.75;;;;;;;-0.55;100.00;103623.13;1023378;29;20302;-76
2023/01/25 01:02:14;;;;;;;30.65;24.92;;;;;;;-0.54;100.00;103615.22;1020211;29;20306;-75
2023/01/25 01:02:45;;;;;;;30.63;24.33;;;;;;;-0.47;100.00;103621.00;1020165;29;20394;-75
2023/01/25 01:03:18;;;;;;;31.05;25.45;;;;;;;-0.49;100.00;103618.47;1020181;29;20331;-75
2023/01/25 01:03:50;;;;;;;27.75;23.13;;;;;;;-0.54;100.00;103620.47;1019480;29;20307;-75
2023/01/25 01:04:25;;;;;;;31.73;24.15;;;;;;;-0.46;100.00;103622.69;1016535;29;20300;-75
2023/01/25 01:04:56;;;;;;;28.10;23.38;;;;;;;-0.41;100.00;103621.53;1020884;28;20330;-75
2023/01/25 01:05:28;;;;;;;31.88;24.27;;;;;;;-0.41;100.00;103621.53;1027339;28;20555;-75
2023/01/25 01:06:05;;;;;;;30.80;25.65;;;;;;;-0.40;100.00;103618.00;1028195;28;20302;-75
2023/01/25 01:06:38;;;;;;;29.30;24.42;;;;;;;-0.51;100.00;103617.69;1027878;28;20703;-75
2023/01/25 01:07:13;;;;;;;28.23;23.45;;;;;;;-0.57;100.00;103619.75;1023306;29;20669;-75
2023/01/25 01:07:48;;;;;;;32.72;24.73;;;;;;;-0.64;100.00;103616.59;1015690;29;20403;-75
2023/01/25 01:08:21;;;;;;;30.52;24.90;;;;;;;-0.72;100.00;103621.34;1013789;29;20316;-75
2023/01/25 01:08:53;;;;;;;30.00;25.33;;;;;;;-0.67;100.00;103622.81;1015540;29;20318;-75
2023/01/25 01:09:25;;;;;;;28.45;23.48;;;;;;;-0.56;100.00;103617.06;1018360;29;20355;-75
2023/01/25 01:09:59;;;;;;;33.95;26.33;;;;;;;-0.53;100.00;103619.53;1020152;29;20303;-75
2023/01/25 01:10:30;;;;;;;30.75;25.58;;;;;;;-0.50;100.00;103615.94;1023708;28;20658;-75
2023/01/25 01:11:08;;;;;;;29.88;24.73;;;;;;;-0.52;100.00;103620.41;1023509;29;20671;-75
2023/01/25 01:11:39;;;;;;;31.00;24.98;;;;;;;-0.51;100.00;103619.47;1020812;29;20311;-75
2023/01/25 01:12:11;;;;;;;32.95;26.83;;;;;;;-0.39;100.00;103614.47;1021181;29;20386;-75
2023/01/25 01:12:43;;;;;;;33.40;25.05;;;;;;;-0.38;100.00;103618.78;1019248;29;20319;-75
2023/01/25 01:13:15;;;;;;;31.38;26.20;;;;;;;-0.45;100.00;103614.78;1020579;29;20885;-75
2023/01/25 01:13:46;;;;;;;33.42;26.33;;;;;;;-0.48;100.00;103614.94;1022518;28;20367;-75
2023/01/25 01:14:18;;;;;;;30.02;24.65;;;;;;;-0.46;100.00;103610.47;1027497;28;20341;-75
2023/01/25 01:14:50;;;;;;;31.15;26.30;;;;;;;-0.24;100.00;103617.25;1027811;28;20302;-74
2023/01/25 01:15:21;;;;;;;32.08;26.23;;;;;;;-0.09;100.00;103616.44;1027798;28;20301;-75
2023/01/25 01:15:54;;;;;;;32.88;24.98;;;;;;;-0.04;100.00;103617.06;1031925;28;20886;-75
2023/01/25 01:16:26;;;;;;;29.73;24.92;;;;;;;0.01;100.00;103611.59;1024363;28;20762;-74
2023/01/25 01:16:58;;;;;;;30.42;25.08;;;;;;;0.03;100.00;103609.75;1023360;29;20295;-74
2023/01/25 01:17:30;;;;;;;30.98;25.27;;;;;;;0.03;100.00;103615.84;1015862;29;20300;-74
2023/01/25 01:18:01;;;;;;;31.15;25.25;;;;;;;0.01;100.00;103612.47;1011837;29;20308;-74
2023/01/25 01:18:34;;;;;;;33.97;24.90;;;;;;;-0.01;100.00;103609.88;1018757;29;20326;-74
2023/01/25 01:19:06;;;;;;;31.25;25.17;;;;;;;-0.02;100.00;103608.19;1020756;28;20306;-74
2023/01/25 01:19:37;;;;;;;30.42;24.30;;;;;;;0.01;100.00;103606.38;1024393;28;20671;-74
2023/01/25 01:20:09;;;;;;;30.48;24.80;;;;;;;0.02;100.00;103613.31;1019821;29;20307;-75
2023/01/25 01:20:47;;;;;;;31.16;27.06;;;;;;;-0.09;100.00;103612.06;1019896;29;20050;-75
2023/01/25 01:21:19;;;;;;;29.92;25.65;;;;;;;-0.08;100.00;103608.50;1020092;29;20211;-74
2023/01/25 01:21:51;;;;;;;30.96;23.70;;;;;;;-0.03;100.00;103611.75;1022480;28;20295;-75
2023/01/25 01:22:23;;;;;;;30.88;24.40;;;;;;;-0.04;100.00;103614.44;1018969;29;20058;-75
2023/01/25 01:22:54;;;;;;;32.35;24.38;;;;;;;-0.18;100.00;103609.06;1020155;29;20439;-74
2023/01/25 01:23:29;;;;;;;30.28;25.52;;;;;;;-0.26;100.00;103611.25;1023940;28;20298;-74
2023/01/25 01:24:01;;;;;;;30.20;23.70;;;;;;;-0.26;100.00;103616.47;1028875;28;20065;-74
2023/01/25 01:24:33;;;;;;;28.50;22.56;;;;;;;-0.24;100.00;103612.00;1031390;28;20305;-74
2023/01/25 01:25:07;;;;;;;29.17;23.75;;;;;;;-0.23;100.00;103613.69;1027402;28;20039;-74
2023/01/25 01:25:39;;;;;;;31.48;25.33;;;;;;;-0.23;100.00;103609.31;1023444;29;20317;-75
2023/01/25 01:26:14;;;;;;;31.38;23.88;;;;;;;-0.23;100.00;103614.56;1020752;29;20299;-75
2023/01/25 01:26:45;;;;;;;30.10;25.60;;;;;;;-0.22;100.00;103615.41;1021129;29;20306;-75
2023/01/25 01:27:17;;;;;;;32.53;26.33;;;;;;;-0.33;100.00;103614.16;1024062;28;20397;-74
2023/01/25 01:27:49;;;;;;;30.23;25.48;;;;;;;-0.44;100.00;103599.91;1023403;29;21684;-74
2023/01/25 01:28:20;;;;;;;30.98;23.67;;;;;;;-0.45;100.00;103604.28;1020229;29;20304;-75
2023/01/25 01:28:52;;;;;;;31.98;25.80;;;;;;;-0.50;100.00;103608.06;1019973;29;20302;-75
2023/01/25 01:29:23;;;;;;;32.47;23.73;;;;;;;-0.51;100.00;103619.47;1023755;28;20346;-75
2023/01/25 01:29:55;;;;;;;30.55;24.27;;;;;;;-0.43;100.00;103612.91;1021476;29;20829;-75
2023/01/25 01:30:26;;;;;;;29.88;24.00;;;;;;;-0.29;100.00;103608.75;1024091;28;20374;-75
2023/01/25 01:31:00;;;;;;;33.20;26.90;;;;;;;-0.25;100.00;103615.56;1026868;28;20310;-75
2023/01/25 01:31:35;;;;;;;30.90;25.08;;;;;;;-0.17;100.00;103608.16;1024306;28;20318;-75
2023/01/25 01:32:18;;;;;;;32.92;24.73;;;;;;;-0.18;100.00;103606.44;1026938;28;20352;-75
2023/01/25 01:32:50;;;;;;;30.45;24.40;;;;;;;-0.13;100.00;103601.81;1024042;28;20673;-75
2023/01/25 01:33:22;;;;;;;34.53;26.08;;;;;;;-0.13;100.00;103610.53;1022430;29;20310;-75
2023/01/25 01:33:55;;;;;;;30.13;25.73;;;;;;;-0.12;100.00;103608.75;1019608;29;20363;-74
2023/01/25 01:34:27;;;;;;;29.23;24.25;;;;;;;-0.12;100.00;103606.13;1016382;29;20796;-75
2023/01/25 01:34:59;;;;;;;28.42;23.13;;;;;;;-0.17;100.00;103603.75;1016288;29;20373;-75
2023/01/25 01:35:32;;;;;;;30.55;24.92;;;;;;;-0.10;100.00;103605.13;1020355;29;20319;-75
2023/01/25 01:36:08;;;;;;;29.92;24.92;;;;;;;-0.11;100.00;103607.81;1020644;29;20319;-75
2023/01/25 01:36:40;;;;;;;30.00;25.20;;;;;;;-0.05;100.00;103602.25;1028494;28;20306;-75
2023/01/25 01:37:12;;;;;;;27.13;23.50;;;;;;;-0.01;100.00;103601.19;1031636;28;20310;-75
2023/01/25 01:37:44;;;;;;;30.55;25.08;;;;;;;0.03;100.00;103609.75;1029005;28;20432;-75
2023/01/25 01:38:15;;;;;;;32.13;25.45;;;;;;;0.04;100.00;103596.56;1023602;29;20844;-75
2023/01/25 01:38:47;;;;;;;32.22;25.95;;;;;;;0.05;100.00;103598.25;1023700;29;20308;-75
2023/01/25 01:39:19;;;;;;;28.15;23.58;;;;;;;0.09;100.00;103598.94;1023925;28;20885;-75
2023/01/25 01:39:51;;;;;;;28.58;24.70;;;;;;;0.10;100.00;103598.88;1023803;28;20322;-75
2023/01/25 01:40:23;;;;;;;28.52;24.17;;;;;;;0.08;100.00;103607.75;1023281;29;20307;-75
2023/01/25 01:40:55;;;;;;;32.30;24.60;;;;;;;0.03;100.00;103599.28;1023445;29;20386;-75
2023/01/25 01:41:28;;;;;;;28.48;23.98;;;;;;;-0.06;100.00;103604.03;1020317;29;20319;-75
2023/01/25 01:42:01;;;;;;;28.25;23.42;;;;;;;-0.03;100.00;103610.88;1015995;29;20328;-75
2023/01/25 01:42:32;;;;;;;30.40;24.70;;;;;;;-0.02;100.00;103607.34;1015794;29;20774;-75
2023/01/25 01:43:06;;;;;;;30.45;24.83;;;;;;;-0.13;100.00;103600.03;1020095;29;20824;-75
2023/01/25 01:43:42;;;;;;;28.10;24.38;;;;;;;-0.12;100.00;103603.50;1019156;29;20330;-75
2023/01/25 01:44:21;;;;;;;32.33;25.25;;;;;;;-0.03;100.00;103610.88;1015752;29;20755;-75
2023/01/25 01:44:57;;;;;;;31.33;25.50;;;;;;;-0.05;100.00;103602.25;1019262;29;20310;-75
2023/01/25 01:45:47;;;;;;;31.73;25.35;;;;;;;-0.06;100.00;103608.44;1019717;29;20303;-75
2023/01/25 01:46:33;;;;;;;31.77;23.83;;;;;;;-0.10;100.00;103599.88;1023285;29;20334;-75
2023/01/25 01:47:08;;;;;;;28.70;23.35;;;;;;;-0.09;100.00;103603.34;1024582;28;20302;-75
2023/01/25 01:47:44;;;;;;;31.95;24.50;;;;;;;-0.16;100.00;103604.59;1023214;29;20303;-75
2023/01/25 01:48:36;;;;;;;31.17;25.23;;;;;;;-0.23;100.00;103598.00;1026442;28;20302;-75
2023/01/25 01:49:16;;;;;;;29.60;23.40;;;;;;;-0.31;100.00;103607.06;1022993;29;20389;-75
2023/01/25 01:49:52;;;;;;;29.77;24.08;;;;;;;-0.30;100.00;103602.66;1023382;29;20291;-75
2023/01/25 01:50:24;;;;;;;32.53;25.08;;;;;;;-0.34;100.00;103609.84;1021404;29;20304;-75
2023/01/25 01:51:04;;;;;;;29.80;24.63;;;;;;;-0.37;100.00;103603.91;1019458;29;20299;-75
2023/01/25 01:51:55;;;;;;;29.52;23.20;;;;;;;-0.41;100.00;103603.22;1019611;29;20696;-74
2023/01/25 01:52:35;;;;;;;28.55;22.38;;;;;;;-0.42;100.00;103608.53;1019935;29;20654;-75
2023/01/25 01:53:06;;;;;;;29.67;22.88;;;;;;;-0.46;100.00;103607.00;1015312;29;20315;-75
2023/01/25 01:53:40;;;;;;;28.88;23.10;;;;;;;-0.34;100.00;103604.59;1019462;29;20311;-75
2023/01/25 01:54:17;;;;;;;30.38;24.15;;;;;;;-0.21;100.00;103612.69;1019617;29;20312;-75
2023/01/25 01:54:54;;;;;;;32.70;24.55;;;;;;;-0.12;100.00;103606.97;1015344;29;20862;-74
2023/01/25 01:55:26;;;;;;;30.42;23.55;;;;;;;-0.06;100.00;103606.66;1020249;29;20307;-74
2023/01/25 01:56:01;;;;;;;32.47;25.58;;;;;;;-0.08;100.00;103602.44;1019668;29;20363;-75
2023/01/25 01:56:40;;;;;;;27.85;22.58;;;;;;;-0.07;100.00;103609.34;1018569;29;20674;-75
2023/01/25 01:57:21;;;;;;;30.90;24.23;;;;;;;-0.12;100.00;103603.50;1023641;29;20827;-75
2023/01/25 01:57:56;;;;;;;31.27;25.77;;;;;;;-0.06;100.00;103600.56;1019489;29;20641;-74
2023/01/25 01:58:29;;;;;;;30.08;24.30;;;;;;;-0.06;100.00;103596.19;1019707;29;20299;-74
2023/01/25 01:59:01;;;;;;;32.53;26.63;;;;;;;-0.07;100.00;103594.47;1014938;29;20823;-74
2023/01/25 01:59:37;;;;;;;30.00;24.95;;;;;;;-0.20;100.00;103600.44;1019567;29;20307;-75
2023/01/25 02:00:13;;;;;;;30.63;25.15;;;;;;;-0.35;100.00;103597.66;1021867;28;20302;-75
2023/01/25 02:00:46;;;;;;;31.13;24.45;;;;;;;-0.41;100.00;103600.59;1023662;28;20914;-75
2023/01/25 02:01:18;;;;;;;28.73;24.20;;;;;;;-0.24;100.00;103596.28;1023619;29;20306;-75
2023/01/25 02:01:51;;;;;;;30.67;24.02;;;;;;;-0.13;100.00;103592.19;1020607;29;20346;-74
2023/01/25 02:02:24;;;;;;;30.58;25.70;;;;;;;-0.17;100.00;103592.44;1019240;29;20829;-74
2023/01/25 02:02:56;;;;;;;32.28;25.92;;;;;;;-0.14;100.00;103592.28;1015328;29;20343;-75
2023/01/25 02:03:28;;;;;;;31.33;26.10;;;;;;;-0.20;100.00;103592.59;1016541;29;20817;-75
2023/01/25 02:04:01;;;;;;;30.50;24.83;;;;;;;-0.25;100.00;103590.22;1017495;29;20304;-75
2023/01/25 02:04:33;;;;;;;28.77;25.13;;;;;;;-0.23;100.00;103598.84;1016995;29;20832;-74
2023/01/25 02:05:11;;;;;;;29.08;23.98;;;;;;;-0.27;100.00;103593.81;1019379;29;20315;-75
2023/01/25 02:06:34;;;;;;;28.73;23.70;;;;;;;-0.37;100.00;103591.66;1015088;29;20356;-75
2023/01/25 02:07:10;;;;;;;28.48;22.95;;;;;;;-0.42;100.00;103592.81;999585;29;20303;-75
2023/01/25 02:07:44;;;;;;;30.77;23.75;;;;;;;-0.44;100.00;103595.50;1006368;29;20085;-75
2023/01/25 02:08:16;;;;;;;30.30;24.85;;;;;;;-0.44;100.00;103584.19;1004127;29;20322;-75
2023/01/25 02:08:47;;;;;;;30.65;23.67;;;;;;;-0.40;100.00;103591.81;1009110;29;20296;-75
2023/01/25 02:09:21;;;;;;;29.77;24.90;;;;;;;-0.41;100.00;103595.34;1010558;29;20338;-75
2023/01/25 02:09:53;;;;;;;32.42;25.02;;;;;;;-0.39;100.00;103588.28;1011786;29;20301;-75
2023/01/25 02:10:26;;;;;;;33.47;25.55;;;;;;;-0.41;100.00;103584.88;1015266;29;20341;-75
2023/01/25 02:11:00;;;;;;;30.98;24.55;;;;;;;-0.40;100.00;103589.19;1006588;29;20312;-75
2023/01/25 02:11:32;;;;;;;32.92;26.40;;;;;;;-0.41;100.00;103584.88;1001344;29;20303;-75
2023/01/25 02:12:06;;;;;;;31.63;26.70;;;;;;;-0.39;100.00;103597.91;1004661;29;20796;-75
2023/01/25 02:12:38;;;;;;;34.90;27.25;;;;;;;-0.38;100.00;103595.19;1011258;29;20649;-75
2023/01/25 02:13:11;;;;;;;32.53;26.98;;;;;;;-0.38;100.00;103597.81;1017809;29;20389;-75
2023/01/25 02:13:43;;;;;;;32.42;26.27;;;;;;;-0.40;100.00;103585.72;1023460;29;20303;-75
2023/01/25 02:14:19;;;;;;;33.83;26.25;;;;;;;-0.42;100.00;103593.66;1019248;29;20291;-75
2023/01/25 02:14:52;;;;;;;32.50;27.55;;;;;;;-0.41;100.00;103584.88;1020532;29;20310;-75
2023/01/25 02:15:27;;;;;;;35.45;26.52;;;;;;;-0.42;100.00;103591.06;1020171;29;20442;-75
2023/01/25 02:15:59;;;;;;;33.35;26.00;;;;;;;-0.45;100.00;103588.59;1020399;29;21653;-75
2023/01/25 02:16:32;;;;;;;31.92;26.90;;;;;;;-0.40;100.00;103586.56;1024791;28;20306;-75
2023/01/25 02:17:06;;;;;;;31.90;26.38;;;;;;;-0.40;100.00;103597.06;1024471;28;20847;-75
2023/01/25 02:17:39;;;;;;;43.35;27.23;;;;;;;-0.42;100.00;103588.44;1024264;28;20748;-75
2023/01/25 02:18:11;;;;;;;34.22;27.15;;;;;;;-0.37;100.00;103591.66;1023253;29;20306;-75
2023/01/25 02:18:42;;;;;;;33.65;25.63;;;;;;;-0.39;100.00;103590.03;1024054;28;20298;-75
2023/01/25 02:20:09;;;;;;;33.10;27.25;;;;;;;-0.37;100.00;103590.81;1023439;29;20318;-75
2023/01/25 02:20:43;;;;;;;30.17;23.08;;;;;;;-0.32;100.00;103583.56;1013156;29;20304;-75
2023/01/25 02:21:15;;;;;;;31.17;25.67;;;;;;;-0.27;100.00;103585.94;1021038;28;20304;-75
2023/01/25 02:21:46;;;;;;;32.47;24.90;;;;;;;-0.26;100.00;103587.66;1027516;28;20716;-75
2023/01/25 02:22:25;;;;;;;32.25;24.73;;;;;;;-0.24;100.00;103591.06;1023326;29;20311;-75
2023/01/25 02:23:06;;;;;;;33.75;27.55;;;;;;;-0.33;100.00;103580.09;1020646;29;20319;-75
2023/01/25 02:23:49;;;;;;;31.27;25.05;;;;;;;-0.39;100.00;103587.44;1023439;28;20401;-75
2023/01/25 02:24:26;;;;;;;32.25;24.40;;;;;;;-0.34;100.00;103583.66;1027348;28;20301;-75
2023/01/25 02:25:10;;;;;;;31.77;24.58;;;;;;;-0.28;100.00;103581.63;1027618;28;20379;-75
2023/01/25 02:25:43;;;;;;;30.30;24.55;;;;;;;-0.28;100.00;103579.88;1018854;29;20310;-75
2023/01/25 02:26:16;;;;;;;30.88;24.42;;;;;;;-0.32;100.00;103579.16;1022419;29;20648;-75
2023/01/25 02:26:48;;;;;;;28.48;24.23;;;;;;;-0.32;100.00;103586.19;1021378;29;20304;-75
2023/01/25 02:27:20;;;;;;;31.70;24.48;;;;;;;-0.30;100.00;103581.72;1016295;29;20308;-73
2023/01/25 02:28:26;;;;;;;32.47;25.02;;;;;;;-0.38;100.00;103584.72;1020289;29;20824;-75
2023/01/25 02:29:01;;;;;;;34.05;24.20;;;;;;;-0.17;100.00;103581.94;1020905;28;20352;-75
2023/01/25 02:29:33;;;;;;;31.05;24.35;;;;;;;-0.29;100.00;103582.56;1022273;29;20401;-75
2023/01/25 02:30:07;;;;;;;29.88;23.92;;;;;;;-0.26;100.00;103582.44;1019287;29;20307;-75
2023/01/25 02:30:40;;;;;;;29.85;23.48;;;;;;;-0.31;100.00;103580.03;1016606;29;20382;-75
2023/01/25 02:31:12;;;;;;;31.85;25.00;;;;;;;-0.39;100.00;103583.03;1017562;29;20850;-75
2023/01/25 02:31:44;;;;;;;30.45;26.27;;;;;;;-0.39;100.00;103577.81;1015907;29;20346;-75
2023/01/25 02:32:16;;;;;;;35.47;25.92;;;;;;;-0.44;100.00;103587.66;1015314;29;20312;-75
2023/01/25 02:32:49;;;;;;;31.35;26.10;;;;;;;-0.28;100.00;103574.63;1016100;29;20310;-75
2023/01/25 02:33:24;;;;;;;30.05;25.63;;;;;;;-0.30;100.00;103581.72;1017245;29;20825;-75